sensor_id;sensor_type;location;lat;lon;timestamp;pressure;altitude;pressure_sealevel;temperature;humidity
58534;BME280;44109;52.398;7.024;2022-11-21T00:01:20;100326.88;;;1.86;99.17
58534;BME280;44109;52.398;7.024;2022-11-21T00:03:50;100326.41;;;1.84;100.00
58534;BME280;44109;52.398;7.024;2022-11-21T00:06:18;100325.78;;;1.78;100.00
58534;BME280;44109;52.398;7.024;2022-11-21T00:08:46;100336.03;;;2.16;100.00
58534;BME280;44109;52.398;7.024;2022-11-21T00:11:14;100322.50;;;2.28;99.17
58534;BME280;44109;52.398;7.024;2022-11-21T00:13:42;100322.63;;;2.41;99.47
58534;BME280;44109;52.398;7.024;2022-11-21T00:16:11;100329.38;;;2.35;98.98
58534;BME280;44109;52.398;7.024;2022-11-21T00:18:42;100322.97;;;2.22;98.73
58534;BME280;44109;52.398;7.024;2022-11-21T00:21:11;100327.47;;;2.26;99.07
58534;BME280;44109;52.398;7.024;2022-11-21T00:23:41;100325.84;;;2.34;98.18
58534;BME280;44109;52.398;7.024;2022-11-21T00:26:10;100330.97;;;2.36;98.19
58534;BME280;44109;52.398;7.024;2022-11-21T00:28:40;100336.19;;;2.11;98.48
58534;BME280;44109;52.398;7.024;2022-11-21T00:31:08;100349.72;;;2.08;98.56
58534;BME280;44109;52.398;7.024;2022-11-21T00:33:44;100344.72;;;2.18;98.77
58534;BME280;44109;52.398;7.024;2022-11-21T00:36:12;100354.09;;;1.91;98.82
58534;BME280;44109;52.398;7.024;2022-11-21T00:38:40;100355.69;;;1.75;99.96
58534;BME280;44109;52.398;7.024;2022-11-21T00:41:07;100348.44;;;1.79;99.86
58534;BME280;44109;52.398;7.024;2022-11-21T00:43:35;100354.72;;;1.80;100.00
58534;BME280;44109;52.398;7.024;2022-11-21T00:46:02;100345.38;;;1.98;100.00
58534;BME280;44109;52.398;7.024;2022-11-21T00:48:30;100348.28;;;2.10;99.33
58534;BME280;44109;52.398;7.024;2022-11-21T00:51:00;100351.81;;;1.85;99.81
58534;BME280;44109;52.398;7.024;2022-11-21T00:53:28;100352.78;;;1.97;100.00
58534;BME280;44109;52.398;7.024;2022-11-21T00:55:56;100341.84;;;2.06;98.87
58534;BME280;44109;52.398;7.024;2022-11-21T00:58:24;100339.63;;;1.91;99.63
58534;BME280;44109;52.398;7.024;2022-11-21T01:00:51;100350.84;;;2.15;98.75
58534;BME280;44109;52.398;7.024;2022-11-21T01:03:27;100350.50;;;2.08;98.36
58534;BME280;44109;52.398;7.024;2022-11-21T01:06:00;100353.75;;;2.10;98.75
58534;BME280;44109;52.398;7.024;2022-11-21T01:08:29;100352.31;;;1.95;98.58
58534;BME280;44109;52.398;7.024;2022-11-21T01:11:01;100344.88;;;2.13;98.41
58534;BME280;44109;52.398;7.024;2022-11-21T01:13:30;100336.03;;;2.16;97.94
58534;BME280;44109;52.398;7.024;2022-11-21T01:16:02;100325.41;;;2.23;97.50
58534;BME280;44109;52.398;7.024;2022-11-21T01:18:30;100328.91;;;2.33;97.33
58534;BME280;44109;52.398;7.024;2022-11-21T01:21:00;100336.19;;;2.11;97.75
58534;BME280;44109;52.398;7.024;2022-11-21T01:23:28;100341.47;;;2.25;97.50
58534;BME280;44109;52.398;7.024;2022-11-21T01:26:00;100335.84;;;2.30;98.21
58534;BME280;44109;52.398;7.024;2022-11-21T01:28:28;100341.66;;;2.11;97.64
58534;BME280;44109;52.398;7.024;2022-11-21T01:31:02;100345.66;;;2.22;98.29
58534;BME280;44109;52.398;7.024;2022-11-21T01:33:30;100339.19;;;2.36;97.66
58534;BME280;44109;52.398;7.024;2022-11-21T01:36:07;100343.72;;;2.32;97.88
58534;BME280;44109;52.398;7.024;2022-11-21T01:38:36;100341.34;;;2.13;97.44
58534;BME280;44109;52.398;7.024;2022-11-21T01:41:04;100352.00;;;1.80;98.72
58534;BME280;44109;52.398;7.024;2022-11-21T01:43:32;100348.91;;;1.90;98.75
58534;BME280;44109;52.398;7.024;2022-11-21T01:46:04;100348.28;;;2.10;98.34
58534;BME280;44109;52.398;7.024;2022-11-21T01:48:40;100354.53;;;2.28;98.39
58534;BME280;44109;52.398;7.024;2022-11-21T01:51:17;100353.53;;;2.41;98.15
58534;BME280;44109;52.398;7.024;2022-11-21T01:53:53;100349.31;;;2.44;97.80
58534;BME280;44109;52.398;7.024;2022-11-21T01:56:26;100358.66;;;2.51;97.71
58534;BME280;44109;52.398;7.024;2022-11-21T01:58:59;100360.75;;;2.46;98.02
58534;BME280;44109;52.398;7.024;2022-11-21T02:01:29;100364.47;;;2.50;97.55
58534;BME280;44109;52.398;7.024;2022-11-21T02:04:01;100370.78;;;2.24;97.66
58534;BME280;44109;52.398;7.024;2022-11-21T02:06:32;100361.97;;;2.10;97.94
58534;BME280;44109;52.398;7.024;2022-11-21T02:09:03;100350.19;;;2.18;97.81
58534;BME280;44109;52.398;7.024;2022-11-21T02:11:35;100348.69;;;2.38;98.27
58534;BME280;44109;52.398;7.024;2022-11-21T02:14:07;100339.00;;;2.49;98.09
58534;BME280;44109;52.398;7.024;2022-11-21T02:16:36;100341.06;;;2.61;98.10
58534;BME280;44109;52.398;7.024;2022-11-21T02:19:03;100335.06;;;2.68;98.00
58534;BME280;44109;52.398;7.024;2022-11-21T02:21:46;100342.00;;;2.74;98.07
58534;BME280;44109;52.398;7.024;2022-11-21T02:24:24;100334.56;;;2.74;98.00
58534;BME280;44109;52.398;7.024;2022-11-21T02:26:58;100339.41;;;2.77;97.60
58534;BME280;44109;52.398;7.024;2022-11-21T02:29:27;100346.09;;;2.50;97.47
58534;BME280;44109;52.398;7.024;2022-11-21T02:31:58;100338.72;;;2.42;97.50
58534;BME280;44109;52.398;7.024;2022-11-21T02:34:30;100337.03;;;2.59;97.71
58534;BME280;44109;52.398;7.024;2022-11-21T02:36:58;100331.53;;;2.67;97.73
58534;BME280;44109;52.398;7.024;2022-11-21T02:39:30;100335.38;;;2.75;97.16
58534;BME280;44109;52.398;7.024;2022-11-21T02:42:05;100327.50;;;2.73;97.52
58534;BME280;44109;52.398;7.024;2022-11-21T02:44:42;100329.94;;;2.66;97.71
58534;BME280;44109;52.398;7.024;2022-11-21T02:47:15;100347.38;;;2.53;97.82
58534;BME280;44109;52.398;7.024;2022-11-21T02:49:48;100340.41;;;2.64;97.61
58534;BME280;44109;52.398;7.024;2022-11-21T02:52:27;100336.91;;;2.55;97.15
58534;BME280;44109;52.398;7.024;2022-11-21T02:54:54;100344.97;;;2.43;97.47
58534;BME280;44109;52.398;7.024;2022-11-21T02:57:23;100346.59;;;2.44;97.25
58534;BME280;44109;52.398;7.024;2022-11-21T02:59:51;100346.31;;;2.37;96.95
58534;BME280;44109;52.398;7.024;2022-11-21T03:02:18;100346.94;;;2.34;97.52
58534;BME280;44109;52.398;7.024;2022-11-21T03:04:46;100340.19;;;2.22;97.55
58534;BME280;44109;52.398;7.024;2022-11-21T03:07:14;100344.56;;;2.15;98.00
58534;BME280;44109;52.398;7.024;2022-11-21T03:09:41;100326.66;;;2.35;98.38
58534;BME280;44109;52.398;7.024;2022-11-21T03:12:09;100319.38;;;2.47;97.85
58534;BME280;44109;52.398;7.024;2022-11-21T03:14:38;100317.56;;;2.60;97.58
58534;BME280;44109;52.398;7.024;2022-11-21T03:17:06;100321.06;;;2.69;97.56
58534;BME280;44109;52.398;7.024;2022-11-21T03:19:33;100314.25;;;2.75;96.96
58534;BME280;44109;52.398;7.024;2022-11-21T03:22:01;100314.06;;;2.80;97.26
58534;BME280;44109;52.398;7.024;2022-11-21T03:24:28;100309.22;;;2.86;97.91
58534;BME280;44109;52.398;7.024;2022-11-21T03:26:56;100314.22;;;2.84;97.21
58534;BME280;44109;52.398;7.024;2022-11-21T03:29:24;100318.81;;;2.63;96.44
58534;BME280;44109;52.398;7.024;2022-11-21T03:31:53;100316.41;;;2.61;97.00
58534;BME280;44109;52.398;7.024;2022-11-21T03:34:20;100310.28;;;2.64;97.12
58534;BME280;44109;52.398;7.024;2022-11-21T03:36:50;100315.59;;;2.69;97.35
58534;BME280;44109;52.398;7.024;2022-11-21T03:39:17;100317.50;;;2.77;97.22
58534;BME280;44109;52.398;7.024;2022-11-21T03:41:45;100324.72;;;2.82;97.81
58534;BME280;44109;52.398;7.024;2022-11-21T03:44:12;100328.28;;;2.74;97.25
58534;BME280;44109;52.398;7.024;2022-11-21T03:46:42;100326.22;;;2.62;97.27
58534;BME280;44109;52.398;7.024;2022-11-21T03:49:14;100327.94;;;2.75;97.24
58534;BME280;44109;52.398;7.024;2022-11-21T03:51:42;100318.41;;;2.82;96.93
58534;BME280;44109;52.398;7.024;2022-11-21T03:54:10;100324.19;;;2.89;97.34
58534;BME280;44109;52.398;7.024;2022-11-21T03:56:38;100332.22;;;2.94;97.44
58534;BME280;44109;52.398;7.024;2022-11-21T03:59:05;100321.94;;;2.91;96.99
58534;BME280;44109;52.398;7.024;2022-11-21T04:01:33;100336.75;;;2.90;97.34
58534;BME280;44109;52.398;7.024;2022-11-21T04:04:01;100332.16;;;2.73;96.97
58534;BME280;44109;52.398;7.024;2022-11-21T04:06:30;100339.09;;;2.70;96.70
58534;BME280;44109;52.398;7.024;2022-11-21T04:08:57;100337.59;;;2.82;96.99
58534;BME280;44109;52.398;7.024;2022-11-21T04:11:25;100336.75;;;2.90;97.43
58534;BME280;44109;52.398;7.024;2022-11-21T04:13:52;100326.75;;;2.94;96.92
58534;BME280;44109;52.398;7.024;2022-11-21T04:16:20;100318.66;;;2.97;97.13
58534;BME280;44109;52.398;7.024;2022-11-21T04:18:47;100298.53;;;2.93;96.94
58534;BME280;44109;52.398;7.024;2022-11-21T04:21:15;100307.38;;;2.99;96.89
58534;BME280;44109;52.398;7.024;2022-11-21T04:23:44;100322.69;;;3.00;97.42
58534;BME280;44109;52.398;7.024;2022-11-21T04:26:11;100325.13;;;2.93;96.99
58534;BME280;44109;52.398;7.024;2022-11-21T04:28:39;100320.03;;;2.83;96.85
58534;BME280;44109;52.398;7.024;2022-11-21T04:31:07;100318.97;;;2.66;95.73
58534;BME280;44109;52.398;7.024;2022-11-21T04:33:35;100325.78;;;2.60;95.67
58534;BME280;44109;52.398;7.024;2022-11-21T04:36:03;100325.16;;;2.54;94.97
58534;BME280;44109;52.398;7.024;2022-11-21T04:38:31;100314.06;;;2.51;95.74
58534;BME280;44109;52.398;7.024;2022-11-21T04:41:00;100317.78;;;2.46;96.17
58534;BME280;44109;52.398;7.024;2022-11-21T04:43:27;100310.72;;;2.37;95.71
58534;BME280;44109;52.398;7.024;2022-11-21T04:45:55;100312.19;;;2.25;95.13
58534;BME280;44109;52.398;7.024;2022-11-21T04:48:23;100313.84;;;2.09;94.55
58534;BME280;44109;52.398;7.024;2022-11-21T04:50:50;100308.56;;;1.95;94.41
58534;BME280;44109;52.398;7.024;2022-11-21T04:53:18;100300.84;;;1.80;93.44
58534;BME280;44109;52.398;7.024;2022-11-21T04:55:45;100302.13;;;1.65;93.03
58534;BME280;44109;52.398;7.024;2022-11-21T04:58:14;100306.47;;;1.49;92.50
58534;BME280;44109;52.398;7.024;2022-11-21T05:00:42;100297.63;;;1.35;92.32
58534;BME280;44109;52.398;7.024;2022-11-21T05:03:09;100293.59;;;1.23;91.98
58534;BME280;44109;52.398;7.024;2022-11-21T05:05:37;100290.50;;;1.08;91.54
58534;BME280;44109;52.398;7.024;2022-11-21T05:08:04;100290.19;;;1.00;92.13
58534;BME280;44109;52.398;7.024;2022-11-21T05:10:32;100286.63;;;0.91;92.10
58534;BME280;44109;52.398;7.024;2022-11-21T05:13:21;100275.69;;;0.83;91.80
58534;BME280;44109;52.398;7.024;2022-11-21T05:15:48;100283.09;;;0.82;92.05
58534;BME280;44109;52.398;7.024;2022-11-21T05:18:22;100289.63;;;0.72;91.40
58534;BME280;44109;52.398;7.024;2022-11-21T05:20:50;100287.22;;;0.71;92.07
58534;BME280;44109;52.398;7.024;2022-11-21T05:23:18;100289.75;;;0.67;92.28
58534;BME280;44109;52.398;7.024;2022-11-21T05:25:45;100290.88;;;0.66;92.72
58534;BME280;44109;52.398;7.024;2022-11-21T05:28:13;100297.34;;;0.70;92.76
58534;BME280;44109;52.398;7.024;2022-11-21T05:30:42;100298.13;;;0.71;92.30
58534;BME280;44109;52.398;7.024;2022-11-21T05:33:10;100305.66;;;0.65;92.29
58534;BME280;44109;52.398;7.024;2022-11-21T05:35:38;100303.88;;;0.61;92.16
58534;BME280;44109;52.398;7.024;2022-11-21T05:38:06;100290.69;;;0.54;92.15
58534;BME280;44109;52.398;7.024;2022-11-21T05:40:33;100293.06;;;0.47;92.05
58534;BME280;44109;52.398;7.024;2022-11-21T05:43:01;100286.25;;;0.36;92.18
58534;BME280;44109;52.398;7.024;2022-11-21T05:45:48;100278.97;;;0.22;92.31
58534;BME280;44109;52.398;7.024;2022-11-21T05:48:16;100287.81;;;0.19;91.48
58534;BME280;44109;52.398;7.024;2022-11-21T05:50:46;100287.44;;;0.12;92.05
58534;BME280;44109;52.398;7.024;2022-11-21T05:53:15;100302.81;;;0.08;92.16
58534;BME280;44109;52.398;7.024;2022-11-21T05:55:44;100288.81;;;0.01;91.83
58534;BME280;44109;52.398;7.024;2022-11-21T05:58:12;100289.94;;;0.00;91.55
58534;BME280;44109;52.398;7.024;2022-11-21T06:00:39;100283.59;;;-0.09;91.55
58534;BME280;44109;52.398;7.024;2022-11-21T06:03:09;100279.72;;;-0.17;91.30
58534;BME280;44109;52.398;7.024;2022-11-21T06:06:03;100279.72;;;-0.17;90.89
58534;BME280;44109;52.398;7.024;2022-11-21T06:08:33;100285.59;;;-0.23;91.08
58534;BME280;44109;52.398;7.024;2022-11-21T06:11:03;100279.47;;;-0.29;91.06
58534;BME280;44109;52.398;7.024;2022-11-21T06:13:32;100276.75;;;-0.29;91.30
58534;BME280;44109;52.398;7.024;2022-11-21T06:16:03;100269.69;;;-0.30;91.15
58534;BME280;44109;52.398;7.024;2022-11-21T06:18:34;100261.00;;;-0.32;91.50
58534;BME280;44109;52.398;7.024;2022-11-21T06:21:05;100252.69;;;-0.36;91.08
58534;BME280;44109;52.398;7.024;2022-11-21T06:23:34;100235.63;;;-0.41;91.48
58534;BME280;44109;52.398;7.024;2022-11-21T06:26:04;100246.72;;;-0.38;91.37
58534;BME280;44109;52.398;7.024;2022-11-21T06:28:34;100252.81;;;-0.41;91.52
58534;BME280;44109;52.398;7.024;2022-11-21T06:31:03;100241.91;;;-0.41;91.23
58534;BME280;44109;52.398;7.024;2022-11-21T06:33:33;100245.25;;;-0.44;90.83
58534;BME280;44109;52.398;7.024;2022-11-21T06:36:02;100253.34;;;-0.53;90.76
58534;BME280;44109;52.398;7.024;2022-11-21T06:38:30;100251.63;;;-0.48;91.29
58534;BME280;44109;52.398;7.024;2022-11-21T06:41:02;100251.28;;;-0.47;91.26
58534;BME280;44109;52.398;7.024;2022-11-21T06:43:31;100248.56;;;-0.47;91.43
58534;BME280;44109;52.398;7.024;2022-11-21T06:45:59;100247.59;;;-0.51;91.35
58534;BME280;44109;52.398;7.024;2022-11-21T06:48:28;100252.22;;;-0.52;91.49
58534;BME280;44109;52.398;7.024;2022-11-21T06:50:57;100250.44;;;-0.56;91.61
58534;BME280;44109;52.398;7.024;2022-11-21T06:53:25;100260.84;;;-0.58;91.39
58534;BME280;44109;52.398;7.024;2022-11-21T06:55:52;100248.16;;;-0.63;91.60
58534;BME280;44109;52.398;7.024;2022-11-21T06:58:20;100264.66;;;-0.59;91.62
58534;BME280;44109;52.398;7.024;2022-11-21T07:00:48;100261.78;;;-0.63;91.41
58534;BME280;44109;52.398;7.024;2022-11-21T07:03:16;100263.38;;;-0.62;91.58
58534;BME280;44109;52.398;7.024;2022-11-21T07:05:43;100257.59;;;-0.60;91.67
58534;BME280;44109;52.398;7.024;2022-11-21T07:08:12;100252.66;;;-0.58;92.11
58534;BME280;44109;52.398;7.024;2022-11-21T07:10:40;100247.22;;;-0.58;92.13
58534;BME280;44109;52.398;7.024;2022-11-21T07:13:09;100250.94;;;-0.54;92.28
58534;BME280;44109;52.398;7.024;2022-11-21T07:15:51;100253.09;;;-0.42;93.16
58534;BME280;44109;52.398;7.024;2022-11-21T07:18:21;100257.50;;;-0.33;93.18
58534;BME280;44109;52.398;7.024;2022-11-21T07:20:49;100255.81;;;-0.20;93.78
58534;BME280;44109;52.398;7.024;2022-11-21T07:23:18;100253.50;;;-0.04;94.45
58534;BME280;44109;52.398;7.024;2022-11-21T07:25:45;100252.91;;;0.08;95.04
58534;BME280;44109;52.398;7.024;2022-11-21T07:28:13;100258.41;;;0.16;94.92
58534;BME280;44109;52.398;7.024;2022-11-21T07:30:40;100244.50;;;0.27;95.51
58534;BME280;44109;52.398;7.024;2022-11-21T07:33:08;100251.47;;;0.41;95.74
58534;BME280;44109;52.398;7.024;2022-11-21T07:35:35;100242.50;;;0.49;96.12
58534;BME280;44109;52.398;7.024;2022-11-21T07:38:03;100241.44;;;0.59;96.49
58534;BME280;44109;52.398;7.024;2022-11-21T07:40:32;100238.56;;;0.64;96.75
58534;BME280;44109;52.398;7.024;2022-11-21T07:43:00;100246.78;;;0.73;96.50
58534;BME280;44109;52.398;7.024;2022-11-21T07:45:29;100249.03;;;0.80;96.84
58534;BME280;44109;52.398;7.024;2022-11-21T07:47:57;100250.63;;;0.89;97.54
58534;BME280;44109;52.398;7.024;2022-11-21T07:50:26;100251.78;;;0.97;97.05
58534;BME280;44109;52.398;7.024;2022-11-21T07:52:56;100249.88;;;1.06;97.31
58534;BME280;44109;52.398;7.024;2022-11-21T07:55:24;100254.53;;;1.14;97.76
58534;BME280;44109;52.398;7.024;2022-11-21T07:58:00;100252.63;;;1.23;98.22
58534;BME280;44109;52.398;7.024;2022-11-21T08:00:30;100245.53;;;1.31;98.49
58534;BME280;44109;52.398;7.024;2022-11-21T08:02:59;100248.59;;;1.38;98.16
58534;BME280;44109;52.398;7.024;2022-11-21T08:05:27;100249.25;;;1.44;98.86
58534;BME280;44109;52.398;7.024;2022-11-21T08:07:54;100246.34;;;1.49;98.70
58534;BME280;44109;52.398;7.024;2022-11-21T08:10:22;100249.41;;;1.56;98.69
58534;BME280;44109;52.398;7.024;2022-11-21T08:12:49;100245.88;;;1.56;99.08
58534;BME280;44109;52.398;7.024;2022-11-21T08:15:18;100240.06;;;1.57;99.17
58534;BME280;44109;52.398;7.024;2022-11-21T08:17:46;100249.56;;;1.68;99.01
58534;BME280;44109;52.398;7.024;2022-11-21T08:20:14;100245.34;;;1.71;99.03
58534;BME280;44109;52.398;7.024;2022-11-21T08:22:42;100238.44;;;1.82;99.09
58534;BME280;44109;52.398;7.024;2022-11-21T08:25:10;100241.78;;;1.88;99.15
58534;BME280;44109;52.398;7.024;2022-11-21T08:27:38;100242.75;;;1.92;99.19
58534;BME280;44109;52.398;7.024;2022-11-21T08:30:08;100240.66;;;1.97;99.55
58534;BME280;44109;52.398;7.024;2022-11-21T08:32:38;100233.72;;;2.00;98.97
58534;BME280;44109;52.398;7.024;2022-11-21T08:35:06;100231.78;;;2.09;99.20
58534;BME280;44109;52.398;7.024;2022-11-21T08:37:34;100230.13;;;2.17;99.40
58534;BME280;44109;52.398;7.024;2022-11-21T08:40:02;100228.19;;;2.17;98.95
58534;BME280;44109;52.398;7.024;2022-11-21T08:42:29;100226.09;;;2.23;99.44
58534;BME280;44109;52.398;7.024;2022-11-21T08:44:57;100224.44;;;2.31;98.99
58534;BME280;44109;52.398;7.024;2022-11-21T08:47:24;100216.66;;;2.41;99.30
58534;BME280;44109;52.398;7.024;2022-11-21T08:49:53;100212.47;;;2.44;99.08
58534;BME280;44109;52.398;7.024;2022-11-21T08:52:21;100220.25;;;2.63;99.58
58534;BME280;44109;52.398;7.024;2022-11-21T08:54:49;100211.47;;;2.78;100.00
58534;BME280;44109;52.398;7.024;2022-11-21T08:57:16;100204.16;;;2.91;100.00
58534;BME280;44109;52.398;7.024;2022-11-21T08:59:44;100197.13;;;3.02;100.00
58534;BME280;44109;52.398;7.024;2022-11-21T09:02:11;100194.31;;;3.11;100.00
58534;BME280;44109;52.398;7.024;2022-11-21T09:04:39;100193.38;;;3.07;100.00
58534;BME280;44109;52.398;7.024;2022-11-21T09:07:08;100200.06;;;3.18;100.00
58534;BME280;44109;52.398;7.024;2022-11-21T09:09:35;100200.97;;;3.22;100.00
58534;BME280;44109;52.398;7.024;2022-11-21T09:12:03;100205.59;;;3.30;100.00
58534;BME280;44109;52.398;7.024;2022-11-21T09:14:31;100192.63;;;3.39;100.00
58534;BME280;44109;52.398;7.024;2022-11-21T09:17:16;100198.69;;;3.45;100.00
58534;BME280;44109;52.398;7.024;2022-11-21T09:20:01;100213.00;;;3.50;100.00
58534;BME280;44109;52.398;7.024;2022-11-21T09:22:30;100207.44;;;3.59;100.00
58534;BME280;44109;52.398;7.024;2022-11-21T09:24:59;100200.13;;;3.63;100.00
58534;BME280;44109;52.398;7.024;2022-11-21T09:27:26;100191.50;;;3.73;100.00
58534;BME280;44109;52.398;7.024;2022-11-21T09:29:54;100189.69;;;3.77;100.00
58534;BME280;44109;52.398;7.024;2022-11-21T09:32:21;100184.88;;;3.74;100.00
58534;BME280;44109;52.398;7.024;2022-11-21T09:34:49;100176.97;;;3.73;100.00
58534;BME280;44109;52.398;7.024;2022-11-21T09:37:17;100172.69;;;3.63;98.53
58534;BME280;44109;52.398;7.024;2022-11-21T09:39:46;100159.22;;;3.58;98.44
58534;BME280;44109;52.398;7.024;2022-11-21T09:42:33;100158.78;;;3.68;98.37
58534;BME280;44109;52.398;7.024;2022-11-21T09:45:25;100175.97;;;3.90;99.02
58534;BME280;44109;52.398;7.024;2022-11-21T09:48:01;100179.53;;;4.02;99.09
58534;BME280;44109;52.398;7.024;2022-11-21T09:50:36;100171.19;;;4.11;99.38
58534;BME280;44109;52.398;7.024;2022-11-21T09:53:11;100172.81;;;4.12;98.94
58534;BME280;44109;52.398;7.024;2022-11-21T09:55:46;100163.31;;;4.22;99.67
58534;BME280;44109;52.398;7.024;2022-11-21T09:58:24;100170.41;;;4.35;99.19
58534;BME280;44109;52.398;7.024;2022-11-21T10:00:57;100174.06;;;4.39;99.12
58534;BME280;44109;52.398;7.024;2022-11-21T10:03:28;100164.34;;;4.42;99.11
58534;BME280;44109;52.398;7.024;2022-11-21T10:06:00;100160.47;;;4.55;99.49
58534;BME280;44109;52.398;7.024;2022-11-21T10:08:41;100150.81;;;4.61;99.55
58534;BME280;44109;52.398;7.024;2022-11-21T10:11:28;100155.72;;;4.68;99.27
58534;BME280;44109;52.398;7.024;2022-11-21T10:14:40;100154.47;;;4.77;99.46
58534;BME280;44109;52.398;7.024;2022-11-21T10:17:22;100150.34;;;4.71;99.65
58534;BME280;44109;52.398;7.024;2022-11-21T10:20:21;100142.47;;;4.70;100.00
58534;BME280;44109;52.398;7.024;2022-11-21T10:23:08;100132.69;;;4.84;98.85
58534;BME280;44109;52.398;7.024;2022-11-21T10:25:51;100110.72;;;4.84;98.00
58534;BME280;44109;52.398;7.024;2022-11-21T10:28:30;100117.50;;;4.75;97.69
58534;BME280;44109;52.398;7.024;2022-11-21T10:31:01;100107.41;;;4.79;97.05
58534;BME280;44109;52.398;7.024;2022-11-21T10:33:34;100101.56;;;4.80;97.45
58534;BME280;44109;52.398;7.024;2022-11-21T10:36:11;100099.97;;;4.79;97.15
58534;BME280;44109;52.398;7.024;2022-11-21T10:38:47;100103.13;;;4.94;97.27
58534;BME280;44109;52.398;7.024;2022-11-21T10:41:23;100101.63;;;4.96;97.25
58534;BME280;44109;52.398;7.024;2022-11-21T10:44:10;100096.47;;;4.95;97.08
58534;BME280;44109;52.398;7.024;2022-11-21T10:47:01;100084.13;;;4.89;96.46
58534;BME280;44109;52.398;7.024;2022-11-21T10:49:39;100086.63;;;4.94;96.68
58534;BME280;44109;52.398;7.024;2022-11-21T10:52:11;100084.53;;;5.03;96.82
58534;BME280;44109;52.398;7.024;2022-11-21T10:55:05;100074.53;;;5.11;96.90
58534;BME280;44109;52.398;7.024;2022-11-21T10:57:41;100082.16;;;5.17;97.45
58534;BME280;44109;52.398;7.024;2022-11-21T11:00:21;100064.44;;;5.15;97.08
58534;BME280;44109;52.398;7.024;2022-11-21T11:03:13;100057.84;;;5.03;96.55
58534;BME280;44109;52.398;7.024;2022-11-21T11:05:53;100051.94;;;5.17;97.08
58534;BME280;44109;52.398;7.024;2022-11-21T11:08:23;100042.56;;;5.18;96.60
58534;BME280;44109;52.398;7.024;2022-11-21T11:11:04;100048.50;;;5.20;96.77
58534;BME280;44109;52.398;7.024;2022-11-21T11:13:34;100046.19;;;5.22;96.32
58534;BME280;44109;52.398;7.024;2022-11-21T11:16:23;100039.28;;;5.44;97.01
58534;BME280;44109;52.398;7.024;2022-11-21T11:18:56;100036.81;;;5.55;97.06
58534;BME280;44109;52.398;7.024;2022-11-21T11:21:27;100038.94;;;5.62;97.13
58534;BME280;44109;52.398;7.024;2022-11-21T11:24:06;100026.16;;;5.69;97.36
58534;BME280;44109;52.398;7.024;2022-11-21T11:26:55;100026.88;;;5.82;97.57
58534;BME280;44109;52.398;7.024;2022-11-21T11:29:26;100020.81;;;5.76;97.52
58534;BME280;44109;52.398;7.024;2022-11-21T11:31:59;100020.28;;;5.71;96.89
58534;BME280;44109;52.398;7.024;2022-11-21T11:34:37;100022.72;;;5.72;96.62
58534;BME280;44109;52.398;7.024;2022-11-21T11:37:11;100014.44;;;5.88;97.42
58534;BME280;44109;52.398;7.024;2022-11-21T11:39:45;100017.53;;;5.87;97.14
58534;BME280;44109;52.398;7.024;2022-11-21T11:42:50;100017.72;;;5.94;96.98
58534;BME280;44109;52.398;7.024;2022-11-21T11:46:03;100010.63;;;5.93;97.00
58534;BME280;44109;52.398;7.024;2022-11-21T11:49:17;100008.31;;;5.95;96.69
58534;BME280;44109;52.398;7.024;2022-11-21T11:51:56;100004.41;;;5.96;96.84
58534;BME280;44109;52.398;7.024;2022-11-21T11:54:33;99987.44;;;5.94;96.95
58534;BME280;44109;52.398;7.024;2022-11-21T11:57:11;99989.66;;;5.88;96.73
58534;BME280;44109;52.398;7.024;2022-11-21T11:59:43;99989.59;;;6.00;96.73
58534;BME280;44109;52.398;7.024;2022-11-21T12:02:18;99979.38;;;6.01;96.71
58534;BME280;44109;52.398;7.024;2022-11-21T12:04:58;99974.78;;;6.08;97.25
58534;BME280;44109;52.398;7.024;2022-11-21T12:07:35;99965.00;;;5.92;96.42
58534;BME280;44109;52.398;7.024;2022-11-21T12:10:12;99951.31;;;5.95;96.55
58534;BME280;44109;52.398;7.024;2022-11-21T12:12:49;99946.41;;;5.89;96.19
58534;BME280;44109;52.398;7.024;2022-11-21T12:15:24;99942.88;;;5.88;96.31
58534;BME280;44109;52.398;7.024;2022-11-21T12:18:24;99939.75;;;5.90;96.53
58534;BME280;44109;52.398;7.024;2022-11-21T12:21:07;99932.50;;;5.81;96.10
58534;BME280;44109;52.398;7.024;2022-11-21T12:23:43;99926.09;;;5.93;96.21
58534;BME280;44109;52.398;7.024;2022-11-21T12:26:16;99922.97;;;5.95;96.00
58534;BME280;44109;52.398;7.024;2022-11-21T12:29:27;99917.84;;;6.13;96.76
58534;BME280;44109;52.398;7.024;2022-11-21T12:32:19;99913.97;;;6.14;96.89
58534;BME280;44109;52.398;7.024;2022-11-21T12:35:19;99906.19;;;6.19;96.88
58534;BME280;44109;52.398;7.024;2022-11-21T12:38:06;99916.63;;;6.29;96.71
58534;BME280;44109;52.398;7.024;2022-11-21T12:40:50;99918.00;;;6.20;96.43
58534;BME280;44109;52.398;7.024;2022-11-21T12:44:01;99914.75;;;6.14;96.28
58534;BME280;44109;52.398;7.024;2022-11-21T12:46:44;99911.69;;;6.00;95.55
58534;BME280;44109;52.398;7.024;2022-11-21T12:49:25;99911.69;;;6.00;95.57
58534;BME280;44109;52.398;7.024;2022-11-21T12:52:21;99916.34;;;5.96;96.43
58534;BME280;44109;52.398;7.024;2022-11-21T12:55:23;99915.75;;;6.06;96.35
58534;BME280;44109;52.398;7.024;2022-11-21T12:58:25;99911.84;;;6.07;96.32
58534;BME280;44109;52.398;7.024;2022-11-21T13:01:09;99911.13;;;6.10;96.66
58534;BME280;44109;52.398;7.024;2022-11-21T13:03:50;99906.50;;;6.14;96.74
58534;BME280;44109;52.398;7.024;2022-11-21T13:06:26;99907.22;;;6.11;96.41
58534;BME280;44109;52.398;7.024;2022-11-21T13:08:58;99889.53;;;6.12;96.58
58534;BME280;44109;52.398;7.024;2022-11-21T13:11:40;99893.31;;;5.88;95.82
58534;BME280;44109;52.398;7.024;2022-11-21T13:14:29;99884.66;;;5.86;95.80
58534;BME280;44109;52.398;7.024;2022-11-21T13:17:12;99873.16;;;6.00;96.07
58534;BME280;44109;52.398;7.024;2022-11-21T13:19:51;99872.28;;;5.96;96.17
58534;BME280;44109;52.398;7.024;2022-11-21T13:22:49;99857.91;;;5.87;96.12
58534;BME280;44109;52.398;7.024;2022-11-21T13:25:46;99866.03;;;5.99;96.33
58534;BME280;44109;52.398;7.024;2022-11-21T13:28:34;99869.31;;;6.04;96.42
58534;BME280;44109;52.398;7.024;2022-11-21T13:31:25;99865.63;;;5.97;96.22